createdAt,value
2018-05-18T00:01:34.630Z,29.90
2018-05-18T00:04:02.015Z,23.40
2018-05-18T00:06:29.407Z,30.23
2018-05-18T00:08:56.791Z,24.10
2018-05-18T00:11:24.183Z,30.97
2018-05-18T00:13:51.579Z,34.00
2018-05-18T00:16:18.971Z,24.23
2018-05-18T00:18:46.355Z,22.63
2018-05-18T00:21:13.750Z,28.93
2018-05-18T00:23:41.138Z,25.20
2018-05-18T00:26:08.563Z,24.13
2018-05-18T00:28:35.925Z,26.93
2018-05-18T00:31:03.312Z,21.43
2018-05-18T00:33:30.708Z,22.53
2018-05-18T00:35:58.103Z,25.03
2018-05-18T00:38:25.498Z,21.57
2018-05-18T00:40:52.882Z,28.00
2018-05-18T00:43:20.275Z,31.27
2018-05-18T00:45:47.664Z,24.63
2018-05-18T00:48:15.059Z,26.10
2018-05-18T00:50:42.439Z,25.53
2018-05-18T00:53:09.827Z,26.47
2018-05-18T00:55:41.038Z,30.87
2018-05-18T00:58:08.471Z,26.10
2018-05-18T01:00:35.842Z,33.10
2018-05-18T01:03:03.238Z,29.60
2018-05-18T01:05:30.646Z,30.83
2018-05-18T01:07:58.038Z,27.30
2018-05-18T01:10:25.431Z,26.53
2018-05-18T01:12:52.823Z,25.83
2018-05-18T01:15:20.211Z,28.60
2018-05-18T01:17:47.605Z,30.47
2018-05-18T01:20:14.994Z,26.93
2018-05-18T01:22:42.382Z,29.13
2018-05-18T01:25:09.785Z,32.27
2018-05-18T01:27:37.176Z,27.60
2018-05-18T01:30:04.559Z,28.33
2018-05-18T01:32:31.947Z,33.50
2018-05-18T01:34:59.339Z,31.63
2018-05-18T01:37:26.726Z,35.63
2018-05-18T01:39:54.112Z,30.13
2018-05-18T01:42:21.495Z,49.07
2018-05-18T01:44:48.881Z,40.10
2018-05-18T01:47:16.270Z,44.23
2018-05-18T01:49:43.747Z,49.03
2018-05-18T01:52:11.118Z,47.87
2018-05-18T01:54:38.661Z,45.80
2018-05-18T01:57:06.043Z,50.43
2018-05-18T01:59:33.430Z,53.47
2018-05-18T02:02:00.823Z,48.97
2018-05-18T02:04:28.203Z,51.13
2018-05-18T02:06:55.586Z,49.63
2018-05-18T02:09:22.980Z,52.93
2018-05-18T02:11:50.367Z,52.63
2018-05-18T02:14:17.758Z,50.10
2018-05-18T02:16:45.146Z,52.13
2018-05-18T02:19:12.543Z,48.13
2018-05-18T02:21:39.939Z,42.97
2018-05-18T02:24:07.343Z,44.43
2018-05-18T02:26:34.731Z,36.50
2018-05-18T02:29:02.119Z,47.07
2018-05-18T02:31:29.507Z,44.17
2018-05-18T02:33:56.903Z,55.83
2018-05-18T02:36:24.307Z,52.23
2018-05-18T02:38:51.691Z,44.70
2018-05-18T02:41:19.091Z,47.10
2018-05-18T02:43:46.546Z,44.27
2018-05-18T02:46:13.943Z,46.87
2018-05-18T02:48:41.334Z,42.80
2018-05-18T02:51:08.727Z,48.23
2018-05-18T02:53:36.115Z,42.27
2018-05-18T02:56:03.507Z,43.50
2018-05-18T02:58:30.899Z,43.30
2018-05-18T03:00:58.283Z,51.23
2018-05-18T03:03:25.725Z,49.90
2018-05-18T03:05:53.182Z,71.53
2018-05-18T03:08:20.574Z,79.67
2018-05-18T03:10:47.973Z,87.83
2018-05-18T03:13:15.371Z,93.33
2018-05-18T03:15:42.759Z,102.70
2018-05-18T03:18:10.155Z,109.10
2018-05-18T03:20:37.543Z,103.47
2018-05-18T03:23:04.934Z,103.37
2018-05-18T03:25:32.331Z,109.23
2018-05-18T03:27:59.860Z,109.60
2018-05-18T03:30:27.169Z,113.40
2018-05-18T03:32:54.554Z,107.97
2018-05-18T03:35:21.951Z,105.03
2018-05-18T03:37:49.343Z,105.50
2018-05-18T03:40:16.739Z,118.03
2018-05-18T03:42:44.207Z,105.63
2018-05-18T03:45:11.594Z,114.77
2018-05-18T03:47:39.000Z,96.37
2018-05-18T03:50:06.374Z,105.33
2018-05-18T03:52:33.763Z,98.47
2018-05-18T03:55:01.155Z,102.87
2018-05-18T03:57:28.551Z,100.37
2018-05-18T03:59:55.963Z,97.60
2018-05-18T04:02:35.110Z,92.50
2018-05-18T04:05:14.127Z,97.37
2018-05-18T04:07:53.452Z,98.90
2018-05-18T04:10:20.811Z,95.13
2018-05-18T04:12:48.151Z,88.20
2018-05-18T04:15:15.551Z,103.53
2018-05-18T04:17:42.939Z,101.47
2018-05-18T04:20:10.388Z,94.70
2018-05-18T04:22:37.751Z,96.57
2018-05-18T04:25:06.245Z,96.97
2018-05-18T04:27:34.078Z,94.73
2018-05-18T04:30:01.549Z,90.00
2018-05-18T04:32:28.858Z,91.27
2018-05-18T04:34:56.258Z,96.83
2018-05-18T04:37:23.651Z,100.23
2018-05-18T04:39:51.037Z,92.90
2018-05-18T04:42:18.461Z,96.57
2018-05-18T04:44:45.851Z,94.17
2018-05-18T04:47:13.246Z,100.13
2018-05-18T04:49:40.680Z,94.03
2018-05-18T04:52:08.071Z,82.40
2018-05-18T04:54:35.586Z,77.20
2018-05-18T04:57:02.975Z,68.67
2018-05-18T04:59:30.368Z,71.00
2018-05-18T05:01:57.759Z,72.53
2018-05-18T05:04:25.147Z,65.00
2018-05-18T05:06:52.555Z,65.70
2018-05-18T05:09:20.127Z,74.43
2018-05-18T05:11:47.519Z,68.17
2018-05-18T05:14:15.039Z,87.33
2018-05-18T05:16:42.421Z,78.93
2018-05-18T05:19:09.981Z,82.93
2018-05-18T05:21:37.363Z,87.57
2018-05-18T05:24:04.751Z,82.07
2018-05-18T05:26:32.323Z,86.07
2018-05-18T05:28:59.728Z,86.67
2018-05-18T05:31:27.107Z,89.43
2018-05-18T05:33:54.508Z,88.50
2018-05-18T05:36:21.900Z,93.97
2018-05-18T05:38:49.298Z,94.50
2018-05-18T05:41:16.687Z,90.83
2018-05-18T05:43:44.091Z,98.77
2018-05-18T05:46:11.479Z,98.53
2018-05-18T05:48:38.930Z,98.27
2018-05-18T05:51:06.318Z,95.40
2018-05-18T05:53:33.842Z,98.03
2018-05-18T05:56:01.236Z,92.43
2018-05-18T05:58:28.665Z,92.23
2018-05-18T06:00:56.028Z,97.57
2018-05-18T06:03:23.402Z,96.10
2018-05-18T06:05:50.799Z,97.40
2018-05-18T06:08:18.186Z,95.23
2018-05-18T06:10:45.582Z,87.83
2018-05-18T06:13:12.971Z,80.67
2018-05-18T06:15:40.376Z,84.20
2018-05-18T06:18:07.806Z,79.53
2018-05-18T06:20:35.187Z,85.07
2018-05-18T06:23:02.582Z,78.07
2018-05-18T06:25:30.039Z,74.63
2018-05-18T06:27:57.504Z,69.60
2018-05-18T06:30:24.891Z,64.07
2018-05-18T06:32:52.283Z,71.90
2018-05-18T06:35:19.738Z,71.87
2018-05-18T06:37:47.071Z,73.03
2018-05-18T06:40:14.459Z,83.50
2018-05-18T06:42:41.847Z,72.23
2018-05-18T06:45:09.234Z,73.10
2018-05-18T06:47:36.623Z,68.23
2018-05-18T06:50:04.010Z,69.83
2018-05-18T06:52:31.492Z,71.37
2018-05-18T06:54:58.784Z,71.03
2018-05-18T06:57:26.179Z,67.40
2018-05-18T06:59:53.563Z,66.77
2018-05-18T07:02:21.008Z,75.73
2018-05-18T07:04:48.400Z,73.23
2018-05-18T07:07:15.786Z,74.87
2018-05-18T07:09:43.187Z,68.00
2018-05-18T07:12:10.572Z,65.27
2018-05-18T07:14:37.967Z,59.83
2018-05-18T07:17:05.354Z,61.40
2018-05-18T07:19:32.763Z,54.00
2018-05-18T07:22:00.172Z,57.47
2018-05-18T07:24:27.554Z,54.63
2018-05-18T07:26:54.968Z,56.80
2018-05-18T07:29:22.364Z,60.53
2018-05-18T07:31:49.746Z,55.90
2018-05-18T07:34:17.218Z,56.50
2018-05-18T07:36:44.604Z,50.53
2018-05-18T07:39:11.991Z,54.43
2018-05-18T07:41:39.395Z,69.17
2018-05-18T07:44:06.779Z,60.33
2018-05-18T07:46:34.170Z,54.87
2018-05-18T07:49:01.567Z,51.30
2018-05-18T07:51:28.965Z,48.73
2018-05-18T07:53:56.350Z,40.73
2018-05-18T07:56:23.747Z,45.80
2018-05-18T07:58:51.131Z,40.87
2018-05-18T08:01:18.527Z,38.17
2018-05-18T08:03:45.910Z,38.17
2018-05-18T08:06:13.299Z,37.47
2018-05-18T08:08:40.686Z,34.77
2018-05-18T08:11:08.086Z,35.60
2018-05-18T08:13:35.474Z,40.63
2018-05-18T08:16:02.927Z,36.23
2018-05-18T08:18:30.259Z,38.67
2018-05-18T08:20:57.638Z,42.37
2018-05-18T08:23:36.810Z,46.50
2018-05-18T08:26:04.201Z,46.50
2018-05-18T08:28:43.384Z,55.67
2018-05-18T08:31:10.766Z,38.20
2018-05-18T08:33:38.158Z,41.90
2018-05-18T08:36:05.547Z,36.23
2018-05-18T08:38:32.938Z,40.93
2018-05-18T08:41:00.341Z,44.10
2018-05-18T08:43:27.792Z,42.70
2018-05-18T08:45:55.190Z,45.20
2018-05-18T08:48:22.599Z,47.90
2018-05-18T08:50:49.995Z,42.40
2018-05-18T08:53:17.382Z,48.63
2018-05-18T08:55:44.783Z,43.03
2018-05-18T08:58:12.211Z,47.13
2018-05-18T09:00:39.623Z,43.73
2018-05-18T09:03:06.994Z,42.50
2018-05-18T09:05:34.383Z,45.70
2018-05-18T09:08:01.768Z,49.23
2018-05-18T09:10:29.163Z,47.83
2018-05-18T09:12:56.635Z,47.47
2018-05-18T09:15:24.024Z,42.70
2018-05-18T09:17:51.414Z,48.70
2018-05-18T09:20:18.803Z,47.70
2018-05-18T09:22:46.190Z,45.23
2018-05-18T09:25:13.583Z,55.00
2018-05-18T09:27:40.971Z,45.83
2018-05-18T09:30:08.362Z,50.93
2018-05-18T09:32:35.751Z,44.53
2018-05-18T09:35:03.139Z,42.50
2018-05-18T09:37:30.531Z,40.60
2018-05-18T09:39:57.910Z,46.80
2018-05-18T09:42:25.302Z,41.43
2018-05-18T09:44:52.686Z,42.97
2018-05-18T09:47:20.075Z,39.67
2018-05-18T09:49:47.463Z,46.30
2018-05-18T09:52:14.958Z,38.60
2018-05-18T09:54:42.406Z,42.87
2018-05-18T09:57:09.730Z,41.43
2018-05-18T09:59:37.125Z,38.70
2018-05-18T10:02:04.535Z,38.10
2018-05-18T10:04:31.945Z,36.80
2018-05-18T10:06:59.330Z,35.27
2018-05-18T10:09:26.723Z,34.67
2018-05-18T10:11:54.099Z,32.83
2018-05-18T10:14:21.491Z,33.20
2018-05-18T10:16:48.916Z,40.30
2018-05-18T10:19:16.295Z,35.13
2018-05-18T10:21:43.686Z,29.90
2018-05-18T10:24:11.078Z,28.10
2018-05-18T10:26:38.499Z,29.10
2018-05-18T10:29:05.903Z,28.50
2018-05-18T10:31:33.286Z,33.50
2018-05-18T10:34:00.680Z,28.17
2018-05-18T10:36:28.071Z,28.07
2018-05-18T10:38:55.507Z,29.67
2018-05-18T10:41:22.895Z,29.63
2018-05-18T10:43:50.298Z,28.63
2018-05-18T10:46:17.675Z,27.83
2018-05-18T10:48:45.058Z,27.07
2018-05-18T10:51:12.463Z,26.53
2018-05-18T10:53:39.847Z,26.93
2018-05-18T10:56:07.235Z,24.47
2018-05-18T10:58:34.624Z,27.53
2018-05-18T11:01:02.015Z,27.60
2018-05-18T11:03:29.399Z,28.07
2018-05-18T11:05:56.791Z,24.47
2018-05-18T11:08:24.176Z,24.73
2018-05-18T11:10:51.570Z,24.77
2018-05-18T11:13:19.778Z,28.53
2018-05-18T11:15:47.178Z,25.63
2018-05-18T11:18:14.571Z,24.83
2018-05-18T11:20:41.966Z,25.83
2018-05-18T11:23:09.419Z,24.73
2018-05-18T11:25:36.847Z,24.47
2018-05-18T11:28:04.244Z,23.67
2018-05-18T11:30:31.627Z,23.33
2018-05-18T11:32:59.019Z,21.57
2018-05-18T11:35:26.403Z,23.90
2018-05-18T11:37:53.887Z,27.37
2018-05-18T11:40:21.279Z,23.50
2018-05-18T11:42:48.666Z,26.80
2018-05-18T11:45:16.067Z,28.83
2018-05-18T11:47:43.467Z,24.30
2018-05-18T11:50:10.885Z,28.83
2018-05-18T11:52:38.262Z,22.17
2018-05-18T11:55:05.739Z,26.93
2018-05-18T11:57:33.131Z,21.57
2018-05-18T12:00:00.519Z,25.07
2018-05-18T12:02:27.975Z,24.90
2018-05-18T12:04:55.379Z,21.83
2018-05-18T12:07:22.758Z,20.83
2018-05-18T12:09:50.154Z,23.47
2018-05-18T12:12:17.638Z,24.17
2018-05-18T12:14:45.067Z,22.67
2018-05-18T12:17:12.462Z,23.10
2018-05-18T12:19:39.915Z,20.03
2018-05-18T12:22:07.294Z,22.47
2018-05-18T12:24:34.698Z,21.57
2018-05-18T12:27:02.120Z,25.07
2018-05-18T12:29:29.503Z,21.83
2018-05-18T12:31:56.899Z,23.80
2018-05-18T12:34:24.286Z,25.80
2018-05-18T12:36:51.695Z,20.70
2018-05-18T12:39:19.083Z,19.67
2018-05-18T12:41:46.474Z,20.03
2018-05-18T12:44:13.867Z,16.80
2018-05-18T12:46:41.260Z,23.23
2018-05-18T12:49:08.638Z,20.03
2018-05-18T12:51:36.035Z,22.30
2018-05-18T12:54:03.478Z,25.30
2018-05-18T12:56:30.819Z,23.90
2018-05-18T12:58:58.211Z,19.20
2018-05-18T13:01:25.616Z,16.90
2018-05-18T13:03:53.006Z,15.10
2018-05-18T13:06:20.402Z,18.47
2018-05-18T13:08:47.786Z,21.63
2018-05-18T13:11:15.197Z,27.97
2018-05-18T13:13:42.567Z,17.40
2018-05-18T13:16:09.955Z,20.77
2018-05-18T13:18:37.359Z,17.37
2018-05-18T13:21:04.742Z,23.13
2018-05-18T13:23:32.140Z,21.40
2018-05-18T13:25:59.527Z,18.33
2018-05-18T13:28:27.075Z,20.93
2018-05-18T13:30:54.458Z,18.70
2018-05-18T13:33:21.855Z,17.40
2018-05-18T13:35:49.231Z,22.77
2018-05-18T13:38:16.627Z,17.83
2018-05-18T13:40:44.020Z,25.47
2018-05-18T13:43:11.414Z,17.70
2018-05-18T13:45:38.866Z,18.30
2018-05-18T13:48:06.248Z,16.40
2018-05-18T13:50:33.670Z,19.40
2018-05-18T13:53:01.055Z,22.47
2018-05-18T13:55:28.458Z,17.50
2018-05-18T13:57:55.843Z,18.80
2018-05-18T14:00:23.283Z,18.70
2018-05-18T14:02:50.674Z,18.73
2018-05-18T14:05:18.079Z,19.87
2018-05-18T14:07:45.459Z,20.77
2018-05-18T14:10:12.852Z,24.03
2018-05-18T14:12:40.235Z,20.43
2018-05-18T14:15:07.627Z,20.83
2018-05-18T14:17:35.013Z,27.60
2018-05-18T14:20:02.450Z,17.60
2018-05-18T14:22:29.832Z,19.17
2018-05-18T14:24:57.223Z,16.20
2018-05-18T14:27:24.611Z,19.03
2018-05-18T14:29:52.011Z,18.33
2018-05-18T14:32:19.392Z,15.63
2018-05-18T14:34:46.855Z,16.73
2018-05-18T14:37:14.246Z,24.73
2018-05-18T14:39:41.630Z,24.70
2018-05-18T14:42:09.029Z,17.60
2018-05-18T14:44:36.419Z,17.67
2018-05-18T14:47:03.806Z,22.57
2018-05-18T14:49:31.200Z,15.07
2018-05-18T14:51:58.587Z,16.50
2018-05-18T14:54:25.971Z,20.83
2018-05-18T14:56:53.371Z,20.10
2018-05-18T14:59:20.759Z,20.93
2018-05-18T15:01:48.152Z,20.67
2018-05-18T15:04:15.668Z,17.60
2018-05-18T15:06:43.067Z,18.00
2018-05-18T15:09:10.454Z,14.90
2018-05-18T15:11:37.838Z,18.80
2018-05-18T15:14:05.230Z,17.93
2018-05-18T15:16:32.627Z,16.37
2018-05-18T15:19:00.027Z,15.30
2018-05-18T15:21:27.514Z,18.17
2018-05-18T15:23:54.912Z,18.03
2018-05-18T15:26:22.299Z,15.90
2018-05-18T15:28:49.754Z,20.97
2018-05-18T15:31:17.070Z,19.43
2018-05-18T15:33:44.467Z,19.87
2018-05-18T15:36:11.855Z,17.50
2018-05-18T15:38:39.247Z,16.87
2018-05-18T15:41:06.656Z,17.40
2018-05-18T15:43:34.094Z,19.50
2018-05-18T15:46:01.490Z,18.83
2018-05-18T15:48:28.876Z,19.90
2018-05-18T15:50:56.263Z,19.43
2018-05-18T15:53:23.668Z,17.83
2018-05-18T15:55:51.060Z,16.50
2018-05-18T15:58:19.494Z,15.40
2018-05-18T16:00:46.930Z,16.80
2018-05-18T16:03:14.606Z,18.53
2018-05-18T16:05:42.028Z,17.67
2018-05-18T16:08:09.442Z,16.77
2018-05-18T16:10:36.915Z,16.07
2018-05-18T16:13:04.350Z,17.97
2018-05-18T16:15:31.843Z,17.33
2018-05-18T16:17:59.294Z,16.90
2018-05-18T16:20:26.726Z,18.20
2018-05-18T16:22:54.166Z,14.87
2018-05-18T16:25:21.563Z,21.20
2018-05-18T16:27:49.119Z,15.57
2018-05-18T16:30:16.566Z,16.63
2018-05-18T16:32:44.031Z,18.63
2018-05-18T16:35:11.438Z,17.40
2018-05-18T16:37:38.818Z,17.53
2018-05-18T16:40:06.289Z,18.40
2018-05-18T16:42:33.999Z,20.70
2018-05-18T16:45:01.474Z,19.13
2018-05-18T16:47:29.037Z,18.53
2018-05-18T16:49:56.494Z,16.60
2018-05-18T16:52:23.943Z,18.77
2018-05-18T16:54:51.383Z,17.30
2018-05-18T16:57:18.774Z,21.00
2018-05-18T16:59:46.222Z,21.20
2018-05-18T17:02:13.690Z,17.50
2018-05-18T17:04:41.142Z,22.07
2018-05-18T17:07:08.567Z,16.27
2018-05-18T17:09:35.954Z,22.60
2018-05-18T17:12:03.363Z,17.07
2018-05-18T17:14:30.812Z,16.70
2018-05-18T17:16:58.286Z,16.33
2018-05-18T17:19:25.731Z,18.73
2018-05-18T17:21:53.177Z,15.13
2018-05-18T17:24:20.578Z,24.50
2018-05-18T17:26:48.044Z,21.20
2018-05-18T17:29:15.454Z,15.27
2018-05-18T17:31:42.890Z,15.60
2018-05-18T17:34:11.337Z,25.13
2018-05-18T17:36:38.926Z,20.60
2018-05-18T17:39:06.349Z,18.87
2018-05-18T17:41:33.726Z,25.93
2018-05-18T17:44:01.120Z,22.73
2018-05-18T17:46:28.526Z,18.57
2018-05-18T17:48:56.029Z,19.03
2018-05-18T17:51:23.338Z,17.10
2018-05-18T17:53:50.739Z,18.20
2018-05-18T17:56:18.119Z,17.33
2018-05-18T17:58:45.506Z,21.90
2018-05-18T18:01:12.891Z,23.93
2018-05-18T18:03:40.282Z,21.40
2018-05-18T18:06:07.683Z,27.83
2018-05-18T18:08:35.071Z,20.83
2018-05-18T18:11:02.466Z,20.40
2018-05-18T18:13:29.965Z,24.70
2018-05-18T18:15:57.346Z,19.50
2018-05-18T18:18:24.752Z,20.87
2018-05-18T18:20:52.146Z,17.47
2018-05-18T18:23:19.537Z,21.97
2018-05-18T18:25:46.926Z,20.83
2018-05-18T18:28:14.339Z,23.43
2018-05-18T18:30:41.730Z,18.57
2018-05-18T18:33:09.118Z,19.30
2018-05-18T18:35:36.511Z,21.67
2018-05-18T18:38:03.902Z,25.03
2018-05-18T18:40:31.306Z,29.33
2018-05-18T18:42:58.700Z,22.53
2018-05-18T18:45:26.092Z,21.23
2018-05-18T18:47:53.488Z,19.30
2018-05-18T18:50:20.867Z,23.40
2018-05-18T18:52:48.271Z,17.07
2018-05-18T18:55:15.647Z,23.63
2018-05-18T18:57:43.042Z,20.93
2018-05-18T19:00:10.426Z,22.63
2018-05-18T19:02:37.819Z,21.63
2018-05-18T19:05:05.210Z,21.57
2018-05-18T19:07:32.619Z,23.80
2018-05-18T19:10:00.003Z,17.90
2018-05-18T19:12:27.403Z,19.67
2018-05-18T19:14:54.874Z,21.27
2018-05-18T19:17:22.263Z,19.60
2018-05-18T19:19:49.663Z,21.77
2018-05-18T19:22:17.050Z,21.90
2018-05-18T19:24:44.443Z,21.63
2018-05-18T19:27:11.895Z,20.17
2018-05-18T19:29:39.304Z,21.57
2018-05-18T19:32:06.679Z,19.27
2018-05-18T19:34:34.071Z,20.23
2018-05-18T19:37:01.462Z,23.37
2018-05-18T19:39:28.869Z,15.90
2018-05-18T19:41:56.243Z,18.80
2018-05-18T19:44:23.634Z,18.50
2018-05-18T19:46:51.027Z,22.20
2018-05-18T19:49:18.477Z,22.70
2018-05-18T19:51:45.871Z,18.50
2018-05-18T19:54:13.285Z,16.83
2018-05-18T19:56:40.675Z,17.60
2018-05-18T19:59:08.067Z,18.70
2018-05-18T20:01:35.458Z,20.63
2018-05-18T20:04:02.842Z,27.43
2018-05-18T20:06:30.237Z,18.20
2018-05-18T20:08:57.631Z,19.90
2018-05-18T20:11:25.018Z,22.23
2018-05-18T20:13:52.403Z,18.20
2018-05-18T20:16:19.795Z,18.07
2018-05-18T20:18:47.179Z,20.47
2018-05-18T20:21:14.618Z,19.63
2018-05-18T20:23:41.982Z,19.57
2018-05-18T20:26:09.374Z,21.43
2018-05-18T20:28:36.768Z,16.00
2018-05-18T20:31:04.167Z,24.37
2018-05-18T20:33:31.555Z,16.73
2018-05-18T20:35:58.971Z,22.07
2018-05-18T20:38:26.355Z,17.37
2018-05-18T20:40:53.763Z,21.17
2018-05-18T20:43:21.146Z,21.23
2018-05-18T20:45:48.535Z,22.97
2018-05-18T20:48:16.022Z,18.13
2018-05-18T20:50:43.414Z,25.90
2018-05-18T20:53:10.807Z,18.10
2018-05-18T20:55:38.200Z,21.37
2018-05-18T20:58:05.736Z,22.90
2018-05-18T21:00:33.127Z,25.13
2018-05-18T21:03:00.523Z,22.07
2018-05-18T21:05:27.906Z,19.40
2018-05-18T21:07:55.302Z,22.83
2018-05-18T21:10:22.685Z,22.53
2018-05-18T21:12:50.077Z,24.43
2018-05-18T21:15:17.463Z,23.90
2018-05-18T21:17:44.907Z,21.77
2018-05-18T21:20:12.271Z,28.83
2018-05-18T21:22:39.669Z,23.00
2018-05-18T21:25:07.052Z,22.37
2018-05-18T21:27:34.450Z,23.70
2018-05-18T21:30:01.843Z,22.30
2018-05-18T21:32:29.231Z,19.43
2018-05-18T21:34:56.620Z,20.90
2018-05-18T21:37:24.038Z,23.73
2018-05-18T21:39:52.081Z,20.53
2018-05-18T21:42:20.134Z,26.33
2018-05-18T21:44:47.506Z,21.90
2018-05-18T21:47:14.895Z,28.60
2018-05-18T21:49:42.291Z,23.57
2018-05-18T21:52:09.670Z,27.50
2018-05-18T21:54:37.064Z,22.67
2018-05-18T21:57:04.461Z,21.23
2018-05-18T21:59:31.851Z,26.63
2018-05-18T22:01:59.239Z,24.17
2018-05-18T22:04:26.636Z,21.33
2018-05-18T22:06:54.022Z,23.10
2018-05-18T22:09:21.409Z,21.57
2018-05-18T22:11:48.799Z,20.73
2018-05-18T22:14:16.243Z,22.93
2018-05-18T22:16:43.579Z,24.23
2018-05-18T22:19:10.966Z,24.23
2018-05-18T22:21:38.358Z,27.73
2018-05-18T22:24:05.740Z,21.67
2018-05-18T22:26:33.130Z,23.00
2018-05-18T22:29:00.515Z,26.13
2018-05-18T22:31:27.907Z,21.20
2018-05-18T22:33:55.290Z,25.87
2018-05-18T22:36:22.683Z,23.77
2018-05-18T22:38:50.071Z,26.33
2018-05-18T22:41:17.466Z,24.03
2018-05-18T22:43:44.854Z,20.43
2018-05-18T22:46:12.243Z,19.00
2018-05-18T22:48:39.635Z,20.80
2018-05-18T22:51:07.023Z,20.47
2018-05-18T22:53:34.411Z,20.63
2018-05-18T22:56:02.534Z,22.10
2018-05-18T22:58:29.932Z,20.30
2018-05-18T23:00:57.332Z,19.83
2018-05-18T23:03:24.828Z,21.87
2018-05-18T23:05:52.214Z,25.90
2018-05-18T23:08:19.607Z,20.80
2018-05-18T23:10:47.000Z,19.80
2018-05-18T23:13:14.394Z,21.23
2018-05-18T23:15:41.779Z,22.03
2018-05-18T23:18:09.174Z,21.60
2018-05-18T23:20:36.570Z,19.73
2018-05-18T23:23:03.963Z,22.03
2018-05-18T23:25:31.358Z,19.60
2018-05-18T23:27:58.750Z,20.00
2018-05-18T23:30:26.142Z,26.33
2018-05-18T23:32:53.539Z,20.37
2018-05-18T23:35:20.927Z,19.40
2018-05-18T23:37:48.314Z,20.43
2018-05-18T23:40:15.706Z,20.97
2018-05-18T23:42:43.098Z,20.10
2018-05-18T23:45:11.410Z,20.40
2018-05-18T23:47:38.796Z,22.37
2018-05-18T23:50:06.238Z,21.60
2018-05-18T23:52:33.623Z,23.87
2018-05-18T23:55:01.022Z,26.10
2018-05-18T23:57:28.403Z,23.13
2018-05-18T23:59:56.019Z,28.27
